ADDS METAR Data INFO
IDs: Format: Raw Decoded Include TAF

Data at: 1046 UTC 19 Oct 2017

KORB 191033Z AUTO 27008KT 10SM CLR 06/M08 A2986 RMK AO2
KORB 191013Z AUTO 25008KT 10SM CLR 06/M08 A2986 RMK AO2
KORB 190953Z AUTO 25007KT 10SM CLR 06/M07 A2985 RMK AO2
KORB 190933Z AUTO 25005KT 10SM CLR 06/M07 A2985 RMK AO2
KORB 190913Z AUTO 25006KT 10SM CLR 06/M08 A2984 RMK AO2
KORB 190853Z AUTO 25005KT 10SM CLR 07/M08 A2983 RMK AO2
KORB 190833Z AUTO 26007KT 10SM CLR 07/M08 A2983 RMK AO2
KORB 190813Z AUTO 26008KT 10SM CLR 07/M09 A2983 RMK AO2
KORB 190753Z AUTO 25008G14KT 210V290 10SM CLR 08/M09 A2982 RMK AO2
KORB 190733Z AUTO 26007KT 10SM CLR 08/M09 A2982 RMK AO2
KORB 190713Z AUTO 26006KT 10SM CLR 08/M09 A2982 RMK AO2
KORB 190653Z AUTO 26009G16KT 10SM CLR 08/M09 A2981 RMK AO2
KORB 190633Z AUTO 27010G18KT 10SM CLR 08/M09 A2980 RMK AO2
KORB 190613Z AUTO 27009G16KT 250V310 10SM CLR 09/M10 A2979 RMK AO2
KORB 190553Z AUTO 27013G20KT 10SM CLR 09/M10 A2978 RMK AO2
KORB 190533Z AUTO 27010G16KT 10SM CLR 09/M10 A2978 RMK AO2
KORB 190513Z AUTO 27010G17KT 10SM CLR 09/M11 A2978 RMK AO2
KORB 190453Z AUTO 27009G18KT 10SM CLR 09/M11 A2978 RMK AO2
KORB 190433Z AUTO 27011G21KT 10SM CLR 09/M11 A2978 RMK AO2
KORB 190413Z AUTO 26011G17KT 10SM CLR 09/M11 A2977 RMK AO2
KORB 190353Z AUTO 26009G16KT 10SM CLR 09/M12 A2977 RMK AO2
KORB 190333Z AUTO 27009G18KT 10SM CLR 09/M12 A2977 RMK AO2
KORB 190313Z AUTO 26010G19KT 10SM CLR 09/M12 A2976 RMK AO2
KORB 190254Z AUTO 26009G17KT 10SM CLR 09/M11 A2976 RMK AO2
KORB 190233Z AUTO 26011G20KT 10SM CLR 10/M11 A2975 RMK AO2
KORB 190213Z AUTO 26011G17KT 10SM CLR 10/M12 A2975 RMK AO2
KORB 190154Z AUTO 26013G19KT 10SM CLR 11/M12 A2974 RMK AO2
KORB 190133Z AUTO 26008G17KT 10SM CLR 11/M12 A2974 RMK AO2
KORB 190113Z AUTO 26013G19KT 10SM CLR 11/M12 A2973 RMK AO2
KORB 190053Z AUTO 25010G17KT 10SM CLR 11/M12 A2973 RMK AO2
KORB 190033Z AUTO 27009G19KT 10SM CLR 11/M12 A2973 RMK AO2
KORB 190013Z AUTO 27014G23KT 10SM CLR 12/M13 A2973 RMK AO2
KORB 182353Z AUTO 25008G17KT 10SM CLR 12/M13 A2972 RMK AO2
KORB 182333Z AUTO 24010G19KT 10SM CLR 12/M12 A2971 RMK AO2
KORB 182313Z AUTO 26010G19KT 10SM CLR 12/M12 A2970 RMK AO2
KORB 182253Z AUTO 26013G26KT 240V310 10SM CLR 13/M12 A2970 RMK AO2
KORB 182233Z AUTO 26011G22KT 10SM CLR 13/M12 A2969 RMK AO2
KORB 182213Z AUTO 26014G22KT 10SM CLR 14/M12 A2968 RMK AO2
KORB 182153Z AUTO 25017G25KT 10SM CLR 14/M12 A2968 RMK AO2
KORB 182133Z AUTO 27017G25KT 10SM CLR 15/M11 A2967 RMK AO2
KORB 182113Z AUTO 25013G21KT 220V280 10SM CLR 15/M11 A2967 RMK AO2
KORB 182053Z AUTO 26014G21KT 10SM CLR 16/M09 A2967 RMK AO2
KORB 182033Z AUTO 26014G23KT 10SM CLR 16/M11 A2966 RMK AO2
KORB 182014Z AUTO 29017G25KT 10SM CLR 16/M11 A2966 RMK AO2
KORB 181953Z AUTO 26012G23KT 10SM CLR 18/M11 A2964 RMK AO2
KORB 181933Z AUTO 27013G22KT 10SM CLR 17/M12 A2964 RMK AO2
KORB 181914Z AUTO 27019G29KT 10SM CLR 17/M16 A2963 RMK AO2
KORB 181853Z AUTO 28013G22KT 10SM CLR 18/M07 A2963 RMK AO2
KORB 181833Z AUTO 27014G24KT 10SM CLR 18/M07 A2964 RMK AO2
KORB 181813Z AUTO 26012G23KT 230V290 10SM CLR 17/M06 A2964 RMK AO2
KORB 181753Z AUTO 27015G24KT 10SM CLR 18/M05 A2963 RMK AO2
KORB 181733Z AUTO 28013G21KT 10SM CLR 18/M04 A2963 RMK AO2
KORB 181713Z AUTO 26013G24KT 240V300 10SM CLR 18/M04 A2963 RMK AO2
KORB 181653Z AUTO 28014G20KT 10SM CLR 18/M02 A2962 RMK AO2
KORB 181633Z AUTO 27009G26KT 10SM CLR 18/00 A2962 RMK AO2
KORB 181613Z AUTO 24011G14KT 220V280 10SM CLR 17/02 A2961 RMK AO2
KORB 181553Z AUTO 23009G14KT 200V270 10SM CLR 16/03 A2960 RMK AO2
KORB 181533Z AUTO 21007KT 170V240 10SM CLR 16/04 A2959 RMK AO2
KORB 181513Z AUTO 19006KT 10SM CLR 13/04 A2960 RMK AO2
KORB 181453Z AUTO 21007KT 10SM CLR 13/03 A2960 RMK AO2
KORB 181433Z AUTO 20006KT 10SM CLR 14/03 A2960 RMK AO2
KORB 181413Z AUTO 21010G18KT 170V240 10SM CLR 14/03 A2960 RMK AO2
KORB 181353Z AUTO 20008G18KT 160V240 10SM CLR 14/03 A2960 RMK AO2
KORB 181333Z AUTO 20008G14KT 140V220 10SM CLR 14/03 A2958 RMK AO2
KORB 181313Z AUTO 22007KT 10SM CLR 14/02 A2960 RMK AO2
KORB 181253Z AUTO 19006KT 10SM CLR 13/02 A2956 RMK AO2
KORB 181233Z AUTO 17010G17KT 10SM CLR 13/02 A2956 RMK AO2
KORB 181213Z AUTO 17010G15KT 10SM CLR 13/02 A2958 RMK AO2
KORB 181153Z AUTO 18009KT 10SM CLR 12/02 A2960 RMK AO2
KORB 181133Z AUTO 17007KT 10SM CLR 12/02 A2960 RMK AO2
KORB 181113Z AUTO 18007KT 10SM CLR 12/02 A2962 RMK AO2
KORB 181053Z AUTO 18008KT 10SM CLR 12/02 A2962 RMK AO2
KORB 181033Z AUTO 18007KT 10SM CLR 13/02 A2963 RMK AO2
KORB 181013Z AUTO 18007KT 10SM CLR 12/02 A2963 RMK AO2
KORB 180953Z AUTO 18008KT 10SM CLR 13/02 A2964 RMK AO2
KORB 180933Z AUTO 18009KT 10SM CLR 12/02 A2964 RMK AO2
KORB 180913Z AUTO 18007KT 10SM CLR 12/02 A2965 RMK AO2
KORB 180853Z AUTO 18006KT 10SM CLR 12/02 A2966 RMK AO2
KORB 180833Z AUTO 18005KT 10SM CLR 12/02 A2967 RMK AO2
KORB 180813Z AUTO 17007KT 10SM CLR 11/02 A2967 RMK AO2
KORB 180753Z AUTO 17006KT 10SM CLR 11/02 A2968 RMK AO2
KORB 180733Z AUTO 18005KT 10SM CLR 11/02 A2968 RMK AO2
KORB 180713Z AUTO 17006KT 10SM CLR 12/02 A2968 RMK AO2
KORB 180653Z AUTO 17008KT 10SM CLR 12/02 A2969 RMK AO2
KORB 180633Z AUTO 17007KT 10SM CLR 12/02 A2969 RMK AO2
KORB 180613Z AUTO 17006KT 10SM CLR 12/02 A2969 RMK AO2
KORB 180553Z AUTO 17007KT 10SM CLR 12/02 A2970 RMK AO2
KORB 180533Z AUTO 17006KT 10SM CLR 12/02 A2970 RMK AO2
KORB 180513Z AUTO 17007KT 10SM CLR 12/02 A2971 RMK AO2
KORB 180453Z AUTO 17006KT 10SM CLR 12/02 A2972 RMK AO2
KORB 180433Z AUTO 17007KT 10SM CLR 12/02 A2972 RMK AO2
KORB 180413Z AUTO 17007KT 10SM CLR 13/02 A2973 RMK AO2
KORB 180353Z AUTO 17008KT 10SM CLR 13/02 A2974 RMK AO2
KORB 180333Z AUTO 17007KT 10SM CLR 13/02 A2974 RMK AO2
KORB 180313Z AUTO 17007KT 10SM CLR 13/02 A2975 RMK AO2
KORB 180253Z AUTO 16006KT 10SM CLR 13/02 A2975 RMK AO2
KORB 180233Z AUTO 16006KT 10SM CLR 13/02 A2975 RMK AO2
KORB 180213Z AUTO 17007KT 10SM CLR 13/02 A2976 RMK AO2
KORB 180153Z AUTO 16007KT 10SM CLR 14/01 A2976 RMK AO2
KORB 180133Z AUTO 16008KT 10SM CLR 14/01 A2977 RMK AO2
KORB 180113Z AUTO 17007KT 10SM CLR 14/01 A2977 RMK AO2
KORB 180053Z AUTO 17008KT 10SM CLR 14/01 A2977 RMK AO2
KORB 180033Z AUTO 17006KT 10SM CLR 14/01 A2977 RMK AO2
KORB 180014Z AUTO 17006KT 10SM CLR 14/00 A2978 RMK AO2
KORB 172353Z AUTO 16005KT 10SM CLR 14/01 A2978 RMK AO2
KORB 172333Z AUTO 16004KT 10SM CLR 15/00 A2978 RMK AO2
KORB 172313Z AUTO 17003KT 10SM CLR 17/M01 A2978 RMK AO2
KORB 172253Z AUTO 19004KT 10SM CLR 18/M01 A2979 RMK AO2